createdAt,value
2018-08-22T00:01:33.082Z,1.80
2018-08-22T00:04:30.994Z,1.63
2018-08-22T00:07:28.648Z,1.73
2018-08-22T00:10:26.528Z,1.60
2018-08-22T00:13:24.254Z,2.00
2018-08-22T00:16:22.039Z,2.10
2018-08-22T00:19:19.684Z,1.63
2018-08-22T00:22:17.529Z,1.97
2018-08-22T00:25:15.242Z,1.50
2018-08-22T00:28:12.996Z,1.50
2018-08-22T00:31:10.850Z,1.60
2018-08-22T00:34:23.662Z,1.70
2018-08-22T00:37:22.372Z,1.37
2018-08-22T00:40:20.266Z,2.13
2018-08-22T00:43:18.162Z,1.10
2018-08-22T00:46:15.794Z,1.43
2018-08-22T00:49:13.390Z,1.73
2018-08-22T00:52:10.919Z,1.20
2018-08-22T00:55:08.417Z,1.20
2018-08-22T00:58:06.010Z,1.10
2018-08-22T01:01:03.705Z,1.17
2018-08-22T01:04:01.424Z,1.70
2018-08-22T01:06:59.223Z,1.53
2018-08-22T01:09:57.111Z,2.30
2018-08-22T01:12:54.967Z,1.43
2018-08-22T01:15:52.612Z,1.17
2018-08-22T01:18:50.459Z,1.60
2018-08-22T01:21:48.207Z,1.40
2018-08-22T01:24:45.934Z,1.70
2018-08-22T01:27:44.685Z,1.30
2018-08-22T01:30:42.498Z,1.30
2018-08-22T01:33:41.217Z,1.50
2018-08-22T01:36:38.842Z,1.47
2018-08-22T01:39:36.478Z,1.40
2018-08-22T01:42:34.210Z,1.27
2018-08-22T01:45:32.019Z,1.30
2018-08-22T01:48:29.864Z,1.40
2018-08-22T01:51:27.558Z,1.23
2018-08-22T01:54:25.191Z,1.13
2018-08-22T01:57:22.842Z,1.40
2018-08-22T02:00:21.577Z,1.40
2018-08-22T02:03:19.402Z,1.23
2018-08-22T02:06:17.170Z,1.60
2018-08-22T02:09:14.916Z,1.60
2018-08-22T02:12:12.727Z,1.53
2018-08-22T02:15:10.546Z,1.00
2018-08-22T02:18:08.467Z,1.00
2018-08-22T02:21:06.339Z,1.10
2018-08-22T02:24:04.029Z,0.90
2018-08-22T02:27:01.873Z,1.07
2018-08-22T02:29:59.538Z,1.00
2018-08-22T02:32:57.233Z,1.13
2018-08-22T02:35:55.006Z,1.03
2018-08-22T02:38:52.678Z,0.90
2018-08-22T02:41:50.507Z,0.97
2018-08-22T02:44:48.019Z,0.83
2018-08-22T02:47:45.940Z,1.10
2018-08-22T02:50:43.804Z,0.77
2018-08-22T02:53:41.474Z,1.30
2018-08-22T02:56:39.431Z,0.90
2018-08-22T02:59:37.291Z,0.93
2018-08-22T03:02:42.242Z,1.13
2018-08-22T03:05:39.890Z,1.20
2018-08-22T03:08:37.707Z,1.00
2018-08-22T03:11:35.641Z,1.10
2018-08-22T03:14:33.215Z,1.43
2018-08-22T03:17:30.740Z,1.10
2018-08-22T03:20:28.418Z,0.90
2018-08-22T03:23:26.187Z,1.00
2018-08-22T03:26:23.935Z,0.90
2018-08-22T03:29:21.647Z,0.90
2018-08-22T03:32:19.145Z,0.93
2018-08-22T03:35:16.824Z,1.20
2018-08-22T03:38:14.432Z,0.93
2018-08-22T03:41:12.334Z,1.00
2018-08-22T03:44:10.161Z,0.97
2018-08-22T03:47:07.902Z,0.90
2018-08-22T03:50:05.656Z,0.80
2018-08-22T03:53:03.399Z,0.83
2018-08-22T03:56:01.042Z,1.00
2018-08-22T03:58:58.698Z,0.87
2018-08-22T04:01:56.473Z,1.00
2018-08-22T04:04:54.230Z,1.07
2018-08-22T04:07:52.110Z,1.00
2018-08-22T04:10:49.816Z,0.63
2018-08-22T04:13:47.556Z,0.93
2018-08-22T04:16:45.324Z,0.90
2018-08-22T04:19:43.103Z,0.87
2018-08-22T04:22:40.792Z,0.90
2018-08-22T04:25:38.543Z,1.50
2018-08-22T04:28:36.125Z,1.37
2018-08-22T04:31:33.733Z,1.90
2018-08-22T04:34:32.445Z,1.57
2018-08-22T04:37:30.363Z,1.30
2018-08-22T04:40:29.031Z,1.53
2018-08-22T04:43:26.868Z,1.60
2018-08-22T04:46:24.620Z,1.70
2018-08-22T04:49:22.425Z,1.60
2018-08-22T04:52:21.109Z,1.63
2018-08-22T04:55:18.736Z,1.27
2018-08-22T04:58:16.493Z,1.60
2018-08-22T05:01:14.159Z,2.10
2018-08-22T05:04:12.063Z,2.17
2018-08-22T05:07:09.486Z,1.93
2018-08-22T05:10:07.336Z,1.60
2018-08-22T05:13:05.218Z,1.90
2018-08-22T05:16:02.915Z,1.57
2018-08-22T05:19:00.511Z,1.60
2018-08-22T05:21:58.223Z,1.50
2018-08-22T05:24:56.026Z,1.10
2018-08-22T05:27:53.856Z,1.60
2018-08-22T05:30:51.633Z,1.50
2018-08-22T05:33:49.270Z,1.60
2018-08-22T05:36:47.133Z,1.30
2018-08-22T05:39:44.907Z,1.70
2018-08-22T05:42:42.739Z,1.47
2018-08-22T05:45:42.397Z,1.47
2018-08-22T05:48:40.031Z,2.00
2018-08-22T05:51:37.823Z,4.17
2018-08-22T05:54:35.698Z,1.70
2018-08-22T05:57:33.366Z,1.20
2018-08-22T06:00:31.064Z,1.73
2018-08-22T06:03:28.914Z,1.97
2018-08-22T06:06:26.701Z,2.23
2018-08-22T06:09:24.490Z,1.57
2018-08-22T06:12:22.236Z,1.40
2018-08-22T06:15:20.265Z,1.50
2018-08-22T06:18:18.709Z,1.53
2018-08-22T06:21:16.319Z,1.40
2018-08-22T06:24:14.125Z,1.37
2018-08-22T06:27:11.791Z,1.10
2018-08-22T06:30:09.534Z,4.00
2018-08-22T06:33:07.372Z,2.37
2018-08-22T06:36:05.089Z,1.17
2018-08-22T06:39:03.701Z,1.77
2018-08-22T06:42:02.374Z,1.83
2018-08-22T06:45:00.007Z,1.20
2018-08-22T06:47:57.864Z,1.37
2018-08-22T06:50:55.573Z,1.43
2018-08-22T06:53:53.271Z,1.20
2018-08-22T06:56:50.913Z,1.10
2018-08-22T06:59:48.626Z,1.00
2018-08-22T07:02:46.403Z,0.83
2018-08-22T07:05:45.452Z,0.73
2018-08-22T07:08:44.018Z,1.10
2018-08-22T07:11:41.657Z,1.00
2018-08-22T07:14:39.349Z,0.93
2018-08-22T07:17:39.161Z,1.00
2018-08-22T07:20:36.731Z,1.00
2018-08-22T07:23:34.418Z,1.30
2018-08-22T07:26:31.948Z,1.20
2018-08-22T07:29:29.729Z,1.03
2018-08-22T07:32:27.352Z,0.80
2018-08-22T07:35:25.259Z,1.20
2018-08-22T07:38:22.931Z,1.10
2018-08-22T07:41:20.578Z,1.05
2018-08-22T07:47:48.347Z,1.00
2018-08-22T07:50:45.966Z,0.98
2018-08-22T07:53:43.837Z,0.90
2018-08-22T07:56:41.463Z,1.15
2018-08-22T07:59:39.317Z,1.40
2018-08-22T08:02:37.286Z,1.85
2018-08-22T08:05:34.879Z,1.70
2018-08-22T08:08:32.663Z,1.57
2018-08-22T08:11:30.303Z,1.20
2018-08-22T08:14:28.163Z,1.37
2018-08-22T08:17:26.957Z,1.47
2018-08-22T08:20:24.774Z,1.77
2018-08-22T08:23:22.579Z,1.20
2018-08-22T08:26:20.228Z,1.07
2018-08-22T08:29:18.107Z,1.12
2018-08-22T08:32:15.934Z,1.57
2018-08-22T08:35:13.712Z,1.00
2018-08-22T08:38:12.322Z,1.20
2018-08-22T08:41:10.218Z,1.27
2018-08-22T08:44:08.930Z,1.37
2018-08-22T08:47:06.660Z,1.60
2018-08-22T08:50:04.138Z,1.00
2018-08-22T08:53:01.763Z,1.20
2018-08-22T08:55:59.436Z,1.20
2018-08-22T08:58:57.346Z,1.62
2018-08-22T09:01:54.865Z,1.30
2018-08-22T09:04:52.441Z,1.20
2018-08-22T09:07:50.155Z,1.80
2018-08-22T09:10:48.742Z,1.52
2018-08-22T09:14:17.488Z,1.20
2018-08-22T09:17:15.275Z,1.27
2018-08-22T09:20:13.153Z,2.00
2018-08-22T09:23:11.080Z,1.65
2018-08-22T09:26:08.867Z,1.75
2018-08-22T09:29:06.563Z,1.77
2018-08-22T09:32:04.199Z,1.65
2018-08-22T09:35:01.932Z,1.50
2018-08-22T09:37:59.636Z,1.50
2018-08-22T09:40:57.382Z,1.80
2018-08-22T09:43:55.173Z,2.17
2018-08-22T09:46:54.231Z,1.60
2018-08-22T09:49:51.956Z,1.90
2018-08-22T09:52:50.607Z,1.75
2018-08-22T09:55:48.082Z,2.10
2018-08-22T09:58:45.820Z,2.10
2018-08-22T10:01:49.456Z,2.05
2018-08-22T10:04:47.262Z,2.42
2018-08-22T10:07:46.398Z,2.15
2018-08-22T10:10:43.873Z,2.00
2018-08-22T10:13:41.812Z,1.90
2018-08-22T10:16:39.650Z,2.35
2018-08-22T10:19:37.335Z,2.98
2018-08-22T10:22:34.983Z,2.40
2018-08-22T10:25:32.710Z,2.37
2018-08-22T10:28:30.378Z,2.70
2018-08-22T10:31:28.035Z,2.50
2018-08-22T10:34:25.828Z,1.70
2018-08-22T10:37:24.606Z,1.90
2018-08-22T10:40:22.179Z,1.70
2018-08-22T10:43:19.868Z,1.87
2018-08-22T10:46:17.636Z,2.10
2018-08-22T10:49:15.309Z,2.20
2018-08-22T10:52:14.029Z,1.70
2018-08-22T10:55:11.818Z,1.87
2018-08-22T10:58:09.784Z,1.83
2018-08-22T11:01:08.372Z,1.90
2018-08-22T11:04:06.083Z,2.17
2018-08-22T11:07:03.914Z,1.97
2018-08-22T11:10:01.787Z,1.83
2018-08-22T11:12:59.160Z,1.40
2018-08-22T11:15:56.863Z,1.80
2018-08-22T11:18:55.476Z,1.70
2018-08-22T11:22:05.316Z,1.50
2018-08-22T11:25:15.032Z,2.17
2018-08-22T11:28:24.821Z,2.17
2018-08-22T11:31:35.315Z,2.10
2018-08-22T11:34:44.861Z,1.40
2018-08-22T11:37:42.579Z,1.70
2018-08-22T11:40:40.156Z,2.87
2018-08-22T11:43:37.751Z,1.83
2018-08-22T11:46:35.421Z,1.67
2018-08-22T11:49:33.554Z,1.70
2018-08-22T11:52:31.889Z,1.60
2018-08-22T11:55:29.473Z,1.27
2018-08-22T11:58:27.230Z,1.63
2018-08-22T12:01:25.287Z,1.60
2018-08-22T12:04:22.887Z,1.60
2018-08-22T12:07:20.512Z,1.60
2018-08-22T12:10:18.190Z,1.70
2018-08-22T12:13:15.901Z,1.80
2018-08-22T12:16:13.951Z,2.37
2018-08-22T12:19:11.552Z,1.80
2018-08-22T12:22:09.289Z,1.97
2018-08-22T12:25:06.907Z,1.60
2018-08-22T12:28:04.551Z,2.07
2018-08-22T12:31:02.487Z,2.10
2018-08-22T12:34:00.062Z,2.07
2018-08-22T12:36:57.808Z,1.90
2018-08-22T12:39:55.523Z,1.87
2018-08-22T12:42:53.435Z,2.10
2018-08-22T12:45:51.321Z,2.13
2018-08-22T12:48:48.912Z,2.00
2018-08-22T12:51:46.638Z,2.20
2018-08-22T12:54:44.436Z,1.63
2018-08-22T12:57:42.013Z,2.47
2018-08-22T13:00:39.857Z,2.30
2018-08-22T13:03:38.898Z,1.73
2018-08-22T13:06:36.728Z,1.97
2018-08-22T13:09:34.387Z,1.77
2018-08-22T13:12:32.227Z,1.60
2018-08-22T13:15:29.733Z,1.50
2018-08-22T13:18:29.587Z,1.50
2018-08-22T13:21:27.426Z,1.83
2018-08-22T13:24:25.155Z,1.73
2018-08-22T13:27:22.831Z,1.97
2018-08-22T13:30:20.411Z,1.73
2018-08-22T13:33:18.096Z,1.93
2018-08-22T13:36:15.736Z,1.90
2018-08-22T13:39:13.403Z,2.27
2018-08-22T13:42:11.138Z,2.00
2018-08-22T13:45:08.763Z,2.20
2018-08-22T13:48:06.273Z,1.80
2018-08-22T13:51:04.768Z,2.37
2018-08-22T13:54:03.631Z,2.47
2018-08-22T13:57:01.336Z,1.93
2018-08-22T13:59:59.107Z,1.60
2018-08-22T14:02:56.583Z,1.70
2018-08-22T14:05:54.407Z,1.60
2018-08-22T14:08:51.973Z,2.17
2018-08-22T14:11:50.094Z,1.87
2018-08-22T14:14:47.572Z,1.90
2018-08-22T14:17:46.335Z,1.63
2018-08-22T14:20:44.181Z,2.10
2018-08-22T14:23:41.977Z,2.07
2018-08-22T14:26:39.760Z,1.70
2018-08-22T14:29:37.494Z,2.10
2018-08-22T14:32:35.388Z,2.33
2018-08-22T14:35:33.206Z,2.00
2018-08-22T14:38:30.806Z,2.00
2018-08-22T14:41:28.296Z,2.00
2018-08-22T14:44:27.244Z,1.93
2018-08-22T14:47:24.760Z,2.20
2018-08-22T14:50:22.648Z,1.90
2018-08-22T14:53:20.246Z,1.87
2018-08-22T14:56:18.192Z,1.90
2018-08-22T14:59:15.870Z,2.40
2018-08-22T15:02:14.275Z,2.10
2018-08-22T15:05:43.400Z,2.27
2018-08-22T15:08:41.207Z,2.70
2018-08-22T15:11:38.672Z,1.90
2018-08-22T15:14:36.391Z,1.80
2018-08-22T15:17:34.230Z,2.77
2018-08-22T15:20:31.969Z,1.97
2018-08-22T15:23:30.825Z,2.00
2018-08-22T15:26:28.340Z,2.13
2018-08-22T15:29:35.042Z,2.07
2018-08-22T15:32:33.654Z,1.97
2018-08-22T15:35:31.293Z,2.10
2018-08-22T15:38:28.973Z,2.40
2018-08-22T15:41:26.641Z,2.20
2018-08-22T15:44:24.354Z,2.30
2018-08-22T15:47:21.992Z,1.90
2018-08-22T15:50:20.925Z,3.37
2018-08-22T15:53:18.944Z,2.50
2018-08-22T15:56:16.316Z,2.20
2018-08-22T15:59:14.938Z,2.37
2018-08-22T16:02:12.558Z,1.87
2018-08-22T16:05:16.238Z,3.37
2018-08-22T16:08:15.027Z,5.27
2018-08-22T16:11:14.900Z,3.40
2018-08-22T16:14:12.662Z,2.07
2018-08-22T16:17:10.110Z,2.03
2018-08-22T16:20:07.813Z,2.83
2018-08-22T16:23:09.696Z,1.97
2018-08-22T16:26:08.234Z,1.97
2018-08-22T16:29:11.817Z,2.63
2018-08-22T16:32:09.383Z,2.07
2018-08-22T16:35:06.838Z,2.00
2018-08-22T16:38:15.669Z,1.90
2018-08-22T16:41:14.543Z,1.83
2018-08-22T16:44:12.227Z,2.10
2018-08-22T16:47:09.982Z,1.80
2018-08-22T16:50:07.715Z,2.83
2018-08-22T16:53:05.415Z,2.27
2018-08-22T16:56:04.221Z,2.50
2018-08-22T16:59:09.027Z,2.00
2018-08-22T17:02:07.676Z,2.13
2018-08-22T17:05:05.368Z,2.00
2018-08-22T17:08:03.173Z,2.10
2018-08-22T17:11:08.643Z,2.37
2018-08-22T17:14:06.340Z,2.40
2018-08-22T17:17:04.170Z,2.27
2018-08-22T17:20:01.973Z,2.07
2018-08-22T17:22:59.840Z,2.20
2018-08-22T17:25:57.385Z,1.90
2018-08-22T17:28:55.969Z,2.00
2018-08-22T17:31:57.901Z,2.13
2018-08-22T17:34:55.825Z,1.67
2018-08-22T17:37:59.618Z,2.10
2018-08-22T17:40:57.382Z,2.03
2018-08-22T17:44:06.210Z,1.83
2018-08-22T17:48:09.213Z,2.30
2018-08-22T17:51:06.896Z,1.80
2018-08-22T17:54:04.590Z,2.00
2018-08-22T17:57:03.504Z,1.70
2018-08-22T18:00:03.570Z,2.40
2018-08-22T18:03:01.555Z,2.13
2018-08-22T18:06:00.231Z,2.57
2018-08-22T18:08:57.994Z,1.87
2018-08-22T18:11:55.655Z,2.07
2018-08-22T18:14:53.264Z,2.37
2018-08-22T18:17:51.873Z,1.80
2018-08-22T18:20:54.567Z,2.77
2018-08-22T18:24:00.644Z,2.40
2018-08-22T18:27:00.701Z,2.70
2018-08-22T18:29:58.449Z,2.93
2018-08-22T18:32:57.070Z,2.67
2018-08-22T18:35:54.733Z,2.37
2018-08-22T18:38:52.238Z,2.73
2018-08-22T18:41:50.081Z,1.70
2018-08-22T18:44:47.945Z,2.30
2018-08-22T18:47:46.698Z,2.53
2018-08-22T18:50:44.341Z,2.70
2018-08-22T18:53:42.061Z,2.50
2018-08-22T18:56:39.694Z,2.40
2018-08-22T18:59:43.488Z,1.93
2018-08-22T19:02:41.158Z,2.20
2018-08-22T19:05:43.787Z,2.53
2018-08-22T19:08:42.154Z,3.07
2018-08-22T19:11:40.003Z,2.77
2018-08-22T19:14:44.756Z,2.50
2018-08-22T19:17:42.172Z,2.50
2018-08-22T19:20:39.950Z,1.80
2018-08-22T19:23:37.723Z,2.37
2018-08-22T19:26:36.479Z,2.53
2018-08-22T19:29:34.355Z,2.50
2018-08-22T19:32:31.945Z,2.13
2018-08-22T19:35:29.664Z,2.63
2018-08-22T19:38:32.128Z,2.30
2018-08-22T19:41:48.041Z,2.20
2018-08-22T19:44:45.824Z,2.30
2018-08-22T19:47:45.454Z,2.07
2018-08-22T19:50:43.196Z,2.73
2018-08-22T19:53:40.847Z,2.17
2018-08-22T19:56:39.647Z,2.30
2018-08-22T19:59:37.218Z,2.20
2018-08-22T20:02:35.114Z,2.27
2018-08-22T20:05:32.898Z,2.60
2018-08-22T20:08:39.482Z,2.20
2018-08-22T20:11:39.381Z,2.33
2018-08-22T20:14:36.875Z,2.37
2018-08-22T20:17:36.584Z,2.77
2018-08-22T20:20:34.182Z,2.47
2018-08-22T20:23:32.087Z,1.97
2018-08-22T20:26:30.467Z,2.50
2018-08-22T20:29:28.263Z,2.03
2018-08-22T20:32:32.277Z,2.47
2018-08-22T20:35:36.070Z,2.70
2018-08-22T20:38:33.614Z,2.60
2018-08-22T20:41:32.655Z,1.97
2018-08-22T20:44:36.536Z,2.07
2018-08-22T20:47:34.434Z,1.70
2018-08-22T20:50:33.002Z,2.03
2018-08-22T20:53:31.796Z,1.90
2018-08-22T20:56:29.667Z,2.00
2018-08-22T20:59:28.714Z,2.43
2018-08-22T21:02:26.379Z,2.10
2018-08-22T21:05:25.086Z,2.87
2018-08-22T21:08:22.649Z,2.30
2018-08-22T21:11:20.479Z,2.20
2018-08-22T21:14:18.017Z,1.90
2018-08-22T21:17:15.765Z,2.10
2018-08-22T21:20:34.206Z,1.90
2018-08-22T21:23:32.160Z,2.30
2018-08-22T21:26:34.452Z,2.87
2018-08-22T21:29:32.071Z,2.27
2018-08-22T21:32:29.662Z,2.30
2018-08-22T21:35:33.429Z,1.73
2018-08-22T21:38:31.306Z,2.10
2018-08-22T21:41:29.353Z,2.10
2018-08-22T21:44:28.996Z,2.17
2018-08-22T21:47:26.883Z,2.00
2018-08-22T21:50:24.677Z,2.20
2018-08-22T21:53:23.626Z,2.57
2018-08-22T21:56:21.591Z,2.07
2018-08-22T21:59:20.257Z,2.13
2018-08-22T22:02:19.085Z,2.23
2018-08-22T22:05:16.674Z,2.10
2018-08-22T22:08:15.430Z,1.87
2018-08-22T22:11:19.222Z,2.20
2018-08-22T22:14:33.172Z,2.13
2018-08-22T22:17:30.928Z,1.97
2018-08-22T22:20:28.543Z,2.37
2018-08-22T22:23:26.190Z,2.00
2018-08-22T22:26:24.801Z,2.43
2018-08-22T22:29:22.363Z,2.23
2018-08-22T22:32:19.965Z,1.60
2018-08-22T22:35:17.828Z,2.13
2018-08-22T22:38:17.485Z,1.87
2018-08-22T22:41:15.497Z,1.80
2018-08-22T22:44:13.174Z,1.70
2018-08-22T22:47:10.919Z,1.83
2018-08-22T22:50:08.035Z,1.97
2018-08-22T22:53:05.490Z,2.03
2018-08-22T22:56:03.139Z,1.83
2018-08-22T22:59:00.840Z,1.70
2018-08-22T23:01:58.521Z,2.17
2018-08-22T23:05:02.585Z,1.70
2018-08-22T23:08:00.179Z,2.03
2018-08-22T23:10:57.967Z,1.73
2018-08-22T23:13:55.585Z,1.70
2018-08-22T23:16:53.587Z,1.93
2018-08-22T23:19:51.500Z,2.30
2018-08-22T23:22:49.263Z,2.10
2018-08-22T23:25:47.053Z,1.57
2018-08-22T23:28:44.700Z,1.70
2018-08-22T23:31:42.267Z,1.83
2018-08-22T23:34:40.067Z,2.20
2018-08-22T23:37:38.016Z,2.00
2018-08-22T23:40:36.715Z,2.00
2018-08-22T23:43:36.264Z,2.37
2018-08-22T23:46:34.191Z,2.00
2018-08-22T23:49:32.180Z,2.00
2018-08-22T23:52:29.587Z,1.70
2018-08-22T23:55:28.286Z,1.77
2018-08-22T23:58:26.090Z,1.70
